Time;durP1;ratioP1;P1;durP2;ratioP2;P2;SDS_P1;SDS_P2;PMS_P1;PMS_P2;Temp;Humidity;BMP_temperature;BMP_pressure;BME280_temperature;BME280_humidity;BME280_pressure;Samples;Min_cycle;Max_cycle;Signal;HPM_P1;HPM_P2
2022/04/21 00:02:07;;;;;;;13.87;7.80;;;;;;;9.51;62.15;101385.97;4992486;28;20297;-85
2022/04/21 00:04:32;;;;;;;16.73;7.90;;;;;;;9.51;63.82;101381.66;4994782;28;20839;-85
2022/04/21 00:06:57;;;;;;;12.70;7.40;;;;;;;9.50;62.85;101382.53;4995185;28;20584;-85
2022/04/21 00:09:23;;;;;;;14.40;7.37;;;;;;;9.50;62.31;101376.50;4993388;28;20332;-85
2022/04/21 00:11:48;;;;;;;15.88;7.43;;;;;;;9.47;62.10;101371.38;4986643;28;20297;-85
2022/04/21 00:14:19;;;;;;;15.00;7.82;;;;;;;9.43;63.75;101367.09;4992099;28;20026;-85
2022/04/21 00:16:45;;;;;;;14.98;7.70;;;;;;;9.41;63.76;101367.13;4994694;28;20116;-85
2022/04/21 00:19:10;;;;;;;14.82;7.65;;;;;;;9.40;62.50;101372.31;4990409;28;20113;-85
2022/04/21 00:24:19;;;;;;;16.77;7.40;;;;;;;9.41;61.88;101368.84;4996729;28;20064;-85
2022/04/21 00:26:45;;;;;;;14.00;7.70;;;;;;;9.41;63.39;101372.31;4993164;28;20026;-85
2022/04/21 00:29:10;;;;;;;14.50;7.57;;;;;;;9.40;63.49;101369.72;4994302;28;20955;-85
2022/04/21 00:31:35;;;;;;;15.63;7.47;;;;;;;9.38;63.14;101372.31;4995427;28;20343;-85
2022/04/21 00:34:04;;;;;;;14.63;7.22;;;;;;;9.35;64.07;101366.31;4991993;28;20293;-85
2022/04/21 00:36:29;;;;;;;14.05;7.75;;;;;;;9.33;62.98;101374.09;4995332;28;20498;-85
2022/04/21 00:38:54;;;;;;;16.63;8.25;;;;;;;9.30;62.87;101368.94;4993014;28;20152;-85
2022/04/21 00:41:20;;;;;;;14.47;7.73;;;;;;;9.30;62.80;101366.38;4990284;28;20041;-85
2022/04/21 00:43:46;;;;;;;17.98;8.15;;;;;;;9.29;63.92;101375.00;4988570;28;20288;-84
2022/04/21 00:46:19;;;;;;;14.52;7.75;;;;;;;9.24;63.13;101371.59;4991775;28;20018;-85
2022/04/21 00:48:45;;;;;;;19.60;8.30;;;;;;;9.26;63.28;101366.41;4989793;28;20038;-85
2022/04/21 00:51:10;;;;;;;15.48;8.07;;;;;;;9.25;64.20;101364.69;4998722;28;20034;-85
2022/04/21 00:53:38;;;;;;;15.77;8.23;;;;;;;9.21;63.80;101361.28;4990643;28;20046;-85
2022/04/21 00:56:04;;;;;;;13.25;7.60;;;;;;;9.20;64.23;101361.31;4992381;28;20057;-85
2022/04/21 00:58:29;;;;;;;22.08;8.82;;;;;;;9.16;64.59;101368.22;4992868;28;20391;-85
2022/04/21 01:00:55;;;;;;;14.13;7.80;;;;;;;9.09;64.01;101363.97;4994144;28;20058;-85
2022/04/21 01:03:22;;;;;;;17.13;8.32;;;;;;;9.07;64.42;101369.19;4991142;28;20033;-85
2022/04/21 01:05:47;;;;;;;18.13;8.30;;;;;;;9.06;65.35;101366.63;4996581;28;20041;-85
2022/04/21 01:08:13;;;;;;;13.13;7.93;;;;;;;9.01;65.20;101363.19;4992068;28;20045;-85
2022/04/21 01:10:41;;;;;;;16.70;8.32;;;;;;;8.94;66.26;101362.38;5022560;28;20037;-85
2022/04/21 01:13:08;;;;;;;18.00;8.88;;;;;;;8.85;65.93;101367.66;4989993;28;20034;-85
2022/04/21 01:15:33;;;;;;;16.50;8.80;;;;;;;8.85;65.59;101366.78;4990675;28;20077;-86
2022/04/21 01:17:58;;;;;;;17.13;8.48;;;;;;;8.86;64.54;101365.94;4990959;28;20077;-85
2022/04/21 01:20:25;;;;;;;16.67;8.60;;;;;;;8.88;64.46;101366.75;4990595;28;20034;-85
2022/04/21 01:22:52;;;;;;;16.48;7.95;;;;;;;8.87;64.78;101363.31;4996750;28;20038;-85
2022/04/21 01:25:17;;;;;;;15.75;8.43;;;;;;;8.89;65.14;101360.72;4990909;28;20105;-85
2022/04/21 01:27:43;;;;;;;14.45;8.05;;;;;;;8.88;65.51;101359.00;4991474;28;20116;-85
2022/04/21 01:30:11;;;;;;;14.38;7.88;;;;;;;8.84;64.75;101354.72;4991316;28;20033;-85
2022/04/21 01:32:37;;;;;;;14.00;7.82;;;;;;;8.81;64.77;101355.59;4991561;28;20030;-85
2022/04/21 01:35:07;;;;;;;14.45;7.82;;;;;;;8.77;64.31;101347.91;4989123;28;20030;-85
2022/04/21 01:43:02;;;;;;;15.23;8.23;;;;;;;8.71;64.71;101343.66;4991846;28;20049;-85
2022/04/21 01:45:27;;;;;;;16.90;8.57;;;;;;;8.71;64.86;101343.66;4989714;28;20026;-85
2022/04/21 01:47:54;;;;;;;18.55;8.00;;;;;;;8.65;65.99;101344.56;4992830;28;20034;-85
2022/04/21 01:50:20;;;;;;;15.38;8.23;;;;;;;8.63;64.69;101341.13;4993424;28;20088;-85
2022/04/21 01:52:45;;;;;;;15.27;8.05;;;;;;;8.63;65.20;101345.41;4990276;28;20182;-85
2022/04/21 01:55:11;;;;;;;15.83;8.13;;;;;;;8.58;64.88;101335.13;4988596;28;20046;-85
2022/04/21 01:57:36;;;;;;;16.25;7.88;;;;;;;8.59;65.86;101347.19;4990898;28;20293;-85
2022/04/21 02:00:01;;;;;;;16.13;8.13;;;;;;;8.56;64.91;101344.63;4993302;28;20030;-85
2022/04/21 02:02:28;;;;;;;16.67;8.05;;;;;;;8.58;65.91;101347.19;4996118;28;20356;-85
2022/04/21 02:04:54;;;;;;;18.67;8.32;;;;;;;8.54;65.57;101342.91;5009181;28;20094;-84
2022/04/21 02:07:19;;;;;;;15.00;7.93;;;;;;;8.53;65.81;101346.38;4996731;28;20058;-86
2022/04/21 02:09:44;;;;;;;15.73;8.32;;;;;;;8.50;65.80;101342.06;4993804;28;20340;-85
2022/04/21 02:12:11;;;;;;;16.30;8.43;;;;;;;8.45;66.47;101343.84;4989971;28;20038;-86
2022/04/21 02:14:37;;;;;;;16.25;8.77;;;;;;;8.45;66.67;101343.84;4995497;28;20432;-85
2022/04/21 02:17:05;;;;;;;17.02;9.20;;;;;;;8.40;66.75;101344.72;5000520;28;20036;-85
2022/04/21 02:19:31;;;;;;;16.05;8.45;;;;;;;8.39;66.79;101353.38;4989247;28;20022;-85
2022/04/21 02:21:56;;;;;;;16.25;8.77;;;;;;;8.33;66.70;101349.06;4991910;28;20033;-85
2022/04/21 02:24:21;;;;;;;18.87;9.27;;;;;;;8.32;67.26;101343.03;4992161;28;20045;-85
2022/04/21 02:26:47;;;;;;;20.85;9.50;;;;;;;8.29;67.64;101344.78;4990537;28;20328;-85
2022/04/21 02:29:12;;;;;;;18.65;8.98;;;;;;;8.23;67.36;101345.66;4989359;28;20022;-85
2022/04/21 02:31:37;;;;;;;16.50;8.97;;;;;;;8.23;67.30;101348.25;4988532;28;20088;-85
2022/04/21 02:34:05;;;;;;;17.77;8.60;;;;;;;8.21;67.19;101349.13;4992045;28;20675;-85
2022/04/21 02:36:30;;;;;;;16.23;9.05;;;;;;;8.20;66.74;101339.66;4989949;28;20479;-85
2022/04/21 02:38:56;;;;;;;18.63;8.63;;;;;;;8.23;66.36;101347.41;4989374;28;20109;-85
2022/04/21 02:41:21;;;;;;;16.53;8.63;;;;;;;8.23;66.80;101340.50;4990069;28;20026;-85
2022/04/21 02:43:46;;;;;;;20.20;8.70;;;;;;;8.22;66.60;101343.09;4987509;28;20297;-85
2022/04/21 02:46:13;;;;;;;17.27;8.97;;;;;;;8.19;66.14;101343.94;4990799;28;20651;-84
2022/04/21 02:48:39;;;;;;;19.15;8.65;;;;;;;8.16;66.40;101337.97;4983503;28;20292;-85
2022/04/21 02:51:04;;;;;;;18.25;8.55;;;;;;;8.12;66.86;101339.69;4993365;28;20026;-85
2022/04/21 02:59:08;;;;;;;17.67;8.52;;;;;;;8.04;67.04;101349.22;4987491;28;20162;-85
2022/04/21 03:01:33;;;;;;;18.50;9.00;;;;;;;8.01;66.34;101349.22;4987497;28;20082;-85
2022/04/21 03:03:58;;;;;;;16.40;8.50;;;;;;;8.00;67.62;101346.66;4985887;28;20022;-85
2022/04/21 03:06:24;;;;;;;17.73;8.93;;;;;;;7.94;66.71;101340.66;4988808;28;20311;-85
2022/04/21 03:08:49;;;;;;;18.52;8.88;;;;;;;7.89;66.99;101351.88;4988889;28;20037;-85
2022/04/21 03:11:14;;;;;;;16.37;8.50;;;;;;;7.85;66.71;101351.00;4987894;28;20045;-86
2022/04/21 03:13:40;;;;;;;18.88;9.00;;;;;;;7.85;67.75;101345.00;4988606;28;20304;-85
2022/04/21 03:16:05;;;;;;;17.97;8.87;;;;;;;7.81;67.09;101345.88;4990070;28;20438;-86
2022/04/21 03:18:30;;;;;;;16.13;8.32;;;;;;;7.79;66.97;101339.88;4987269;28;20293;-85
2022/04/21 03:26:38;;;;;;;20.17;9.27;;;;;;;7.68;67.24;101339.91;4998952;28;20100;-85
2022/04/21 03:29:03;;;;;;;17.35;8.93;;;;;;;7.65;66.94;101341.63;4988531;28;20030;-85
2022/04/21 03:31:28;;;;;;;17.23;8.70;;;;;;;7.62;67.45;101336.50;4988605;28;20574;-85
2022/04/21 03:33:54;;;;;;;19.00;9.50;;;;;;;7.59;67.44;101337.38;4986776;28;20030;-85
2022/04/21 03:36:19;;;;;;;18.10;8.77;;;;;;;7.59;67.67;101337.38;4989566;28;20122;-85
2022/04/21 03:38:44;;;;;;;21.42;9.38;;;;;;;7.54;67.51;101342.56;4987534;28;20826;-85
2022/04/21 03:41:10;;;;;;;16.58;9.48;;;;;;;7.53;67.70;101345.13;4993271;28;20028;-85
2022/04/21 03:43:35;;;;;;;17.50;9.32;;;;;;;7.48;69.21;101345.16;4991422;28;20046;-85
2022/04/21 03:46:03;;;;;;;21.55;9.57;;;;;;;7.43;68.39;101346.91;5000289;28;20037;-85
2022/04/21 03:48:29;;;;;;;17.90;8.68;;;;;;;7.38;68.71;101348.59;4989551;28;20443;-85
2022/04/21 03:50:55;;;;;;;17.58;9.00;;;;;;;7.36;69.49;101349.50;4987399;28;20109;-85
2022/04/21 03:53:20;;;;;;;21.15;9.13;;;;;;;7.33;69.97;101352.91;4989319;28;20100;-85
2022/04/21 03:55:46;;;;;;;17.63;8.73;;;;;;;7.28;69.25;101353.81;4996063;28;20026;-85
2022/04/21 03:58:11;;;;;;;18.73;9.30;;;;;;;7.24;70.05;101346.91;4989754;28;20281;-85
2022/04/21 04:00:36;;;;;;;17.87;9.07;;;;;;;7.21;69.84;101352.09;4986906;28;20156;-85
2022/04/21 04:03:01;;;;;;;18.03;8.70;;;;;;;7.16;70.28;101351.25;4988575;28;20659;-85
2022/04/21 04:05:27;;;;;;;15.50;9.05;;;;;;;7.09;70.47;101346.09;4990658;28;20335;-85
2022/04/21 04:10:52;;;;;;;20.30;8.80;;;;;;;6.99;70.86;101352.13;4986056;28;20093;-85
2022/04/21 04:13:26;;;;;;;16.27;8.55;;;;;;;6.96;70.76;101343.53;4988714;28;20038;-85
2022/04/21 04:15:54;;;;;;;17.80;9.60;;;;;;;6.93;70.88;101348.69;4994047;28;20488;-85
2022/04/21 04:18:21;;;;;;;18.65;8.70;;;;;;;6.94;71.53;101350.41;4984814;28;20531;-85
2022/04/21 04:20:47;;;;;;;18.92;9.40;;;;;;;6.91;71.67;101353.84;4986473;28;20037;-85
2022/04/21 04:23:19;;;;;;;17.30;8.95;;;;;;;6.89;71.41;101349.56;4988480;28;20394;-85
2022/04/21 04:25:45;;;;;;;15.82;8.65;;;;;;;6.85;70.18;101356.41;5000285;28;20038;-86
2022/04/21 04:28:10;;;;;;;20.92;9.10;;;;;;;6.85;70.53;101353.84;5003604;28;20045;-86
2022/04/21 04:30:39;;;;;;;25.15;8.65;;;;;;;6.87;70.25;101346.97;4996592;28;20420;-85
2022/04/21 04:33:06;;;;;;;19.33;9.07;;;;;;;6.87;71.22;101346.97;4989873;28;20022;-85
2022/04/21 04:35:31;;;;;;;17.98;8.90;;;;;;;6.89;70.23;101345.25;4988657;28;20122;-85
2022/04/21 04:37:57;;;;;;;17.48;8.90;;;;;;;6.93;69.27;101346.97;4995337;28;20104;-85
2022/04/21 04:40:22;;;;;;;19.00;9.23;;;;;;;6.97;69.37;101345.25;4990569;28;20038;-84
2022/04/21 04:42:48;;;;;;;18.70;9.10;;;;;;;7.00;70.01;101348.69;4997711;28;20513;-85
2022/04/21 04:47:57;;;;;;;17.65;8.98;;;;;;;7.04;71.28;101357.25;4992946;28;20292;-85
2022/04/21 04:50:23;;;;;;;17.13;8.45;;;;;;;7.03;70.42;101351.25;4994627;28;20018;-85
2022/04/21 04:52:48;;;;;;;19.13;9.00;;;;;;;7.06;70.67;101346.09;4998080;28;20372;-85
2022/04/21 04:55:14;;;;;;;17.98;8.90;;;;;;;7.09;70.31;101352.97;4991924;28;20514;-85
2022/04/21 04:57:40;;;;;;;19.63;9.05;;;;;;;7.18;69.94;101344.34;4991595;28;20030;-85
2022/04/21 05:00:09;;;;;;;17.58;9.38;;;;;;;7.33;69.98;101349.47;4992017;28;20030;-85
2022/04/21 05:02:34;;;;;;;21.17;9.05;;;;;;;7.38;69.74;101352.91;4992255;28;20034;-85
2022/04/21 05:05:00;;;;;;;20.42;8.93;;;;;;;7.41;68.71;101355.50;4990532;28;20092;-85
2022/04/21 05:07:26;;;;;;;25.65;9.70;;;;;;;7.42;68.98;101352.06;4992503;28;20684;-85
2022/04/21 05:09:51;;;;;;;20.13;9.43;;;;;;;7.42;68.89;101352.91;4982807;28;20036;-85
2022/04/21 05:12:18;;;;;;;23.60;10.23;;;;;;;7.43;69.49;101356.34;4998645;28;20486;-85
2022/04/21 05:14:44;;;;;;;22.77;10.00;;;;;;;7.42;68.13;101354.63;5019290;28;20026;-85
2022/04/21 05:17:09;;;;;;;20.33;9.00;;;;;;;7.42;67.51;101347.75;4991312;28;20387;-85
2022/04/21 05:19:35;;;;;;;19.58;9.57;;;;;;;7.47;70.42;101352.88;4990584;28;20030;-85
2022/04/21 05:22:05;;;;;;;18.73;9.48;;;;;;;7.48;69.39;101349.44;4991363;28;20041;-86
2022/04/21 05:24:31;;;;;;;20.98;9.75;;;;;;;7.52;69.41;101346.84;4984287;28;20037;-85
2022/04/21 05:26:57;;;;;;;21.02;10.15;;;;;;;7.56;69.93;101342.56;4991108;28;20034;-85
2022/04/21 05:32:08;;;;;;;21.70;9.85;;;;;;;7.66;71.43;101348.53;5004450;28;20084;-85
2022/04/21 05:34:33;;;;;;;22.63;9.88;;;;;;;7.66;69.84;101343.34;4987375;28;20033;-85
2022/04/21 05:37:00;;;;;;;21.98;10.07;;;;;;;7.70;68.21;101345.94;4998108;28;20029;-85
2022/04/21 05:39:26;;;;;;;21.45;10.27;;;;;;;7.76;70.79;101355.38;4993800;28;20052;-85
2022/04/21 05:41:53;;;;;;;22.52;10.07;;;;;;;7.80;70.59;101357.06;4987386;28;20539;-85
2022/04/21 05:44:19;;;;;;;23.17;9.70;;;;;;;7.83;67.50;101349.31;4993001;28;20076;-85
2022/04/21 05:46:45;;;;;;;21.88;9.48;;;;;;;7.87;67.98;101349.28;5001493;28;20061;-85
2022/04/21 05:49:11;;;;;;;25.02;9.80;;;;;;;7.94;66.91;101350.13;4991707;28;20069;-85
2022/04/21 05:51:37;;;;;;;19.95;9.52;;;;;;;8.00;67.79;101347.50;4990714;28;20104;-85
2022/04/21 05:54:05;;;;;;;19.42;9.70;;;;;;;8.07;66.25;101346.63;4985619;28;20030;-85
2022/04/21 05:56:30;;;;;;;20.30;9.65;;;;;;;8.11;66.41;101353.50;4995371;28;20030;-85
2022/04/21 05:58:56;;;;;;;19.50;9.50;;;;;;;8.16;66.98;101348.28;4995894;28;20156;-84
2022/04/21 06:01:21;;;;;;;19.83;9.32;;;;;;;8.23;66.77;101357.72;4990786;28;20031;-85
2022/04/21 06:03:46;;;;;;;17.80;9.17;;;;;;;8.29;65.71;101350.78;5026764;28;20034;-84
2022/04/21 06:06:12;;;;;;;18.83;9.40;;;;;;;8.37;65.97;101353.38;4996395;28;20331;-85
2022/04/21 06:08:38;;;;;;;20.08;9.45;;;;;;;8.42;66.37;101338.69;4993219;28;20408;-85
2022/04/21 06:11:04;;;;;;;21.30;9.77;;;;;;;8.50;66.04;101344.66;4986047;28;20129;-85
2022/04/21 06:13:30;;;;;;;19.90;10.23;;;;;;;8.57;66.78;101343.75;4983861;28;20342;-85
2022/04/21 06:15:57;;;;;;;18.27;9.48;;;;;;;8.66;65.80;101345.41;4986693;28;20026;-85
2022/04/21 06:18:23;;;;;;;19.38;9.32;;;;;;;8.73;65.54;101346.22;4995160;28;20112;-85
2022/04/21 06:20:49;;;;;;;19.23;9.50;;;;;;;8.79;67.25;101348.75;4988319;28;20104;-85
2022/04/21 06:23:15;;;;;;;21.15;9.88;;;;;;;8.88;63.80;101354.69;4988074;28;20097;-85
2022/04/21 06:25:41;;;;;;;20.13;9.63;;;;;;;8.96;63.55;101350.31;4986748;28;20026;-84
2022/04/21 06:28:07;;;;;;;22.00;9.90;;;;;;;9.01;63.24;101340.78;4990922;28;20431;-84
2022/04/21 06:30:33;;;;;;;21.10;9.73;;;;;;;9.09;63.19;101341.56;4994351;28;20030;-85
2022/04/21 06:32:59;;;;;;;19.38;10.02;;;;;;;9.20;64.81;101335.44;4982490;28;20022;-85
2022/04/21 06:35:25;;;;;;;20.70;10.35;;;;;;;9.49;64.06;101338.56;4982343;28;20041;-86
2022/04/21 06:37:51;;;;;;;21.23;10.25;;;;;;;10.08;62.92;101329.19;4986728;28;20193;-85
2022/04/21 06:40:16;;;;;;;18.65;10.20;;;;;;;10.33;60.58;101329.72;4989511;28;20106;-86
2022/04/21 06:42:42;;;;;;;18.40;9.77;;;;;;;10.29;60.22;101331.53;4989166;28;20391;-86
2022/04/21 06:48:04;;;;;;;19.85;10.30;;;;;;;10.48;60.99;101324.31;4988243;28;20089;-84
2022/04/21 06:50:34;;;;;;;17.13;9.75;;;;;;;10.58;59.72;101323.28;4988526;28;20061;-84
2022/04/21 06:53:07;;;;;;;19.27;9.20;;;;;;;10.62;59.98;101315.44;4991761;28;20265;-85
2022/04/21 06:55:32;;;;;;;19.38;10.15;;;;;;;10.85;60.47;101316.81;5035386;28;20034;-86
2022/04/21 06:57:58;;;;;;;18.83;9.98;;;;;;;10.96;58.03;101317.47;4994822;28;20022;-85
2022/04/21 07:00:26;;;;;;;19.17;10.02;;;;;;;11.09;58.37;101319.81;4987868;28;20105;-84
2022/04/21 07:02:54;;;;;;;19.20;9.77;;;;;;;11.49;58.11;101317.31;4987499;28;20034;-86
2022/04/21 07:05:19;;;;;;;17.17;9.70;;;;;;;12.05;56.49;101320.50;4999953;28;20025;-85
2022/04/21 07:07:44;;;;;;;15.93;9.52;;;;;;;12.44;56.01;101318.72;4989632;28;20026;-85
2022/04/21 07:10:11;;;;;;;19.13;9.73;;;;;;;12.79;54.36;101314.41;4999566;28;20041;-85
2022/04/21 07:12:37;;;;;;;17.88;9.18;;;;;;;13.33;52.61;101328.59;4989362;28;20104;-85
2022/04/21 07:15:05;;;;;;;15.88;8.63;;;;;;;13.24;52.03;101323.63;4988625;28;20022;-85
2022/04/21 07:17:31;;;;;;;14.93;8.98;;;;;;;13.18;55.60;101329.00;4990418;28;20057;-85
2022/04/21 07:19:57;;;;;;;16.65;9.40;;;;;;;13.26;53.55;101331.41;4996605;28;20062;-86
2022/04/21 07:22:25;;;;;;;16.52;9.02;;;;;;;13.40;51.67;101329.28;4989261;28;20105;-85
2022/04/21 07:24:55;;;;;;;14.18;8.95;;;;;;;13.31;51.19;101330.41;4981306;28;20037;-85
2022/04/21 07:27:20;;;;;;;27.58;10.18;;;;;;;13.19;52.75;101330.72;4987356;28;20032;-85
2022/04/21 07:29:46;;;;;;;18.13;9.57;;;;;;;13.06;53.06;101339.72;4990184;28;20022;-85
2022/04/21 07:32:11;;;;;;;15.90;9.40;;;;;;;12.91;53.54;101332.31;4987065;28;20038;-85
2022/04/21 07:34:37;;;;;;;16.63;9.15;;;;;;;12.91;54.90;101333.16;4987408;28;20395;-85
2022/04/21 07:37:04;;;;;;;16.13;9.05;;;;;;;12.97;53.83;101338.19;4993450;28;20030;-86
2022/04/21 07:39:30;;;;;;;15.07;9.20;;;;;;;12.87;54.62;101330.69;4990718;28;20022;-84
2022/04/21 07:41:57;;;;;;;16.25;9.02;;;;;;;12.85;53.63;101342.88;4988513;28;20026;-87
2022/04/21 07:44:23;;;;;;;17.65;9.68;;;;;;;12.95;54.04;101340.00;4988009;28;20110;-85
2022/04/21 07:46:48;;;;;;;17.20;9.27;;;;;;;13.20;53.41;101334.19;4988910;28;20109;-84
2022/04/21 07:54:43;;;;;;;18.17;9.57;;;;;;;13.29;51.96;101334.81;4985581;28;20110;-85
2022/04/21 07:57:10;;;;;;;23.45;9.60;;;;;;;13.27;53.94;101338.34;4994709;28;20062;-86
2022/04/21 07:59:35;;;;;;;15.73;9.30;;;;;;;13.34;52.63;101340.75;4989825;28;20037;-85
2022/04/21 08:02:01;;;;;;;17.75;9.52;;;;;;;13.66;52.60;101337.22;4989768;28;20023;-85
2022/04/21 08:04:27;;;;;;;14.48;8.90;;;;;;;14.33;51.57;101329.16;4989201;28;20030;-86
2022/04/21 08:06:53;;;;;;;17.98;8.63;;;;;;;15.34;48.06;101325.75;4991537;28;20030;-86
2022/04/21 08:09:19;;;;;;;15.93;8.73;;;;;;;16.25;46.69;101320.63;4988508;28;20042;-85
2022/04/21 08:11:44;;;;;;;14.10;8.70;;;;;;;16.93;43.38;101326.53;4992074;28;20419;-86
2022/04/21 08:14:09;;;;;;;13.98;8.30;;;;;;;17.72;44.58;101327.47;4988537;28;20161;-86
2022/04/21 08:16:35;;;;;;;17.10;8.77;;;;;;;18.33;41.51;101327.22;4991875;28;20030;-87
2022/04/21 08:19:00;;;;;;;13.40;8.27;;;;;;;18.77;41.16;101323.28;4993565;28;20817;-85
2022/04/21 08:21:25;;;;;;;13.88;8.35;;;;;;;19.05;40.27;101321.91;4995157;28;20036;-87
2022/04/21 08:23:51;;;;;;;11.30;7.97;;;;;;;19.16;40.42;101317.81;4992497;28;20026;-86
2022/04/21 08:34:30;;;;;;;14.75;8.80;;;;;;;18.28;40.66;101321.34;4992555;28;20118;-85
2022/04/21 08:36:55;;;;;;;14.88;8.48;;;;;;;18.27;41.45;101323.13;4988128;28;20041;-86
2022/04/21 08:39:21;;;;;;;19.65;9.30;;;;;;;18.41;42.49;101325.94;5000623;28;20030;-87
2022/04/21 08:41:48;;;;;;;15.85;9.40;;;;;;;18.60;42.30;101323.28;4989424;28;20026;-86
2022/04/21 08:44:18;;;;;;;12.30;8.30;;;;;;;18.53;41.01;101320.09;4992701;28;20033;-85
2022/04/21 08:46:45;;;;;;;11.13;7.93;;;;;;;18.09;41.08;101332.72;4988580;28;20044;-85
2022/04/21 08:49:12;;;;;;;16.02;8.77;;;;;;;17.66;42.26;101326.00;4992520;28;20061;-86
2022/04/21 08:51:37;;;;;;;12.13;7.97;;;;;;;17.51;43.28;101318.78;4991166;28;20154;-86
2022/04/21 08:54:03;;;;;;;14.57;8.50;;;;;;;17.46;41.86;101325.16;4992781;28;20066;-86
2022/04/21 08:56:29;;;;;;;16.10;8.35;;;;;;;17.32;41.35;101325.75;4992554;28;20132;-86
2022/04/21 08:58:54;;;;;;;12.95;8.45;;;;;;;17.28;42.31;101329.41;4990562;28;20030;-86
2022/04/21 09:01:19;;;;;;;21.10;8.57;;;;;;;17.24;42.98;101323.47;4991789;28;20139;-86
2022/04/21 09:03:47;;;;;;;14.77;9.60;;;;;;;17.23;42.89;101319.13;4992417;28;20277;-86
2022/04/21 09:06:13;;;;;;;16.30;8.60;;;;;;;17.25;43.51;101311.22;4992084;28;20037;-86
2022/04/21 09:08:38;;;;;;;13.10;7.32;;;;;;;17.11;40.90;101306.59;4991124;28;20396;-86
2022/04/21 09:11:15;;;;;;;17.27;8.00;;;;;;;17.07;42.44;101312.00;4992419;28;20041;-86
2022/04/21 09:13:44;;;;;;;13.70;7.90;;;;;;;16.92;42.48;101308.28;4992537;28;20460;-86
2022/04/21 09:16:11;;;;;;;17.00;8.40;;;;;;;16.86;43.91;101309.38;4992114;28;20037;-86
2022/04/21 09:18:43;;;;;;;21.38;9.10;;;;;;;17.03;45.54;101320.91;4995554;28;20164;-86
2022/04/21 09:21:11;;;;;;;14.27;7.97;;;;;;;17.06;41.50;101316.38;5005557;28;20026;-86
2022/04/21 09:23:37;;;;;;;13.88;8.15;;;;;;;16.96;41.50;101315.09;4998621;28;20420;-86
2022/04/21 09:26:10;;;;;;;12.52;7.00;;;;;;;16.84;41.49;101302.53;4990460;28;20308;-86
2022/04/21 09:28:35;;;;;;;14.88;8.13;;;;;;;16.79;40.49;101312.31;4990377;28;20030;-86
2022/04/21 09:31:02;;;;;;;12.00;7.57;;;;;;;16.75;41.43;101310.75;4986105;28;20018;-87
2022/04/21 09:33:29;;;;;;;13.52;8.23;;;;;;;16.54;41.19;101302.84;4990961;28;20060;-86
2022/04/21 09:35:59;;;;;;;12.48;7.70;;;;;;;16.50;42.90;101308.28;4990983;28;20337;-86
2022/04/21 09:38:25;;;;;;;11.20;6.70;;;;;;;16.51;41.25;101302.94;4991675;28;20030;-86
2022/04/21 09:40:51;;;;;;;12.13;7.18;;;;;;;16.58;41.19;101288.69;4991565;28;20137;-86
2022/04/21 09:43:28;;;;;;;10.68;6.25;;;;;;;16.65;40.42;101291.13;4990535;28;20113;-86
2022/04/21 09:46:08;;;;;;;11.27;6.18;;;;;;;16.56;39.79;101298.41;4991562;28;20377;-86
2022/04/21 09:48:34;;;;;;;11.77;6.45;;;;;;;16.31;38.96;101292.44;4990357;28;20034;-86
2022/04/21 09:51:13;;;;;;;8.43;5.85;;;;;;;16.35;39.84;101283.56;4990142;28;20073;-86
2022/04/21 09:53:57;;;;;;;9.68;5.45;;;;;;;16.31;38.79;101286.38;4991075;28;20097;-86
2022/04/21 09:56:33;;;;;;;9.53;5.30;;;;;;;16.21;39.17;101285.91;4989765;28;20034;-86
2022/04/21 09:59:07;;;;;;;8.55;5.05;;;;;;;16.28;39.99;101281.25;4990993;28;20049;-86
2022/04/21 10:01:35;;;;;;;;;;;;;;;16.49;38.77;101286.47;4991504;28;20030;-86
2022/04/21 10:04:05;;;;;;;10.63;5.20;;;;;;;16.52;38.39;101275.88;4991517;28;19909;-86
2022/04/21 10:06:31;;;;;;;10.20;5.40;;;;;;;16.36;37.07;101273.97;4990989;28;20041;-86
2022/04/21 10:08:56;;;;;;;9.18;5.20;;;;;;;16.31;38.03;101270.69;4984456;28;20392;-86
2022/04/21 10:11:24;;;;;;;7.95;5.22;;;;;;;16.34;37.78;101274.03;4989272;28;20022;-86
2022/04/21 10:13:55;;;;;;;8.85;4.90;;;;;;;16.33;37.50;101268.84;4991303;28;20089;-86
2022/04/21 10:16:21;;;;;;;8.48;4.80;;;;;;;16.29;37.93;101265.50;4973761;28;20459;-86
2022/04/21 10:18:50;;;;;;;12.00;4.78;;;;;;;16.40;37.61;101259.81;4989883;28;20030;-86
2022/04/21 10:21:55;;;;;;;6.82;4.65;;;;;;;16.48;36.07;101258.59;4981858;28;20026;-86
2022/04/21 10:24:22;;;;;;;7.55;4.50;;;;;;;16.33;35.72;101261.00;4990929;28;20057;-86
2022/04/21 10:26:47;;;;;;;9.80;5.18;;;;;;;16.26;35.86;101259.53;4990358;28;20495;-86
2022/04/21 10:29:19;;;;;;;9.57;4.22;;;;;;;16.24;36.84;101251.75;4990580;28;20038;-86
2022/04/21 10:31:45;;;;;;;9.23;5.20;;;;;;;16.37;37.66;101254.75;4990640;28;20439;-86
2022/04/21 10:34:36;;;;;;;10.82;5.57;;;;;;;16.29;35.96;101246.34;4990591;28;20193;-86
2022/04/21 10:37:08;;;;;;;8.88;4.55;;;;;;;16.26;38.18;101249.06;4989950;28;20061;-86
2022/04/21 10:39:33;;;;;;;12.27;4.65;;;;;;;16.43;36.67;101247.50;4990938;28;20025;-86
2022/04/21 10:42:18;;;;;;;10.52;4.75;;;;;;;16.61;36.24;101238.03;4989362;28;20026;-86
2022/04/21 10:44:47;;;;;;;7.22;3.80;;;;;;;16.66;33.93;101238.69;4978513;28;20379;-86
2022/04/21 10:47:25;;;;;;;10.45;4.45;;;;;;;16.64;33.72;101247.53;4989884;28;20022;-85
2022/04/21 10:49:58;;;;;;;7.18;4.38;;;;;;;16.62;33.90;101244.97;4990678;28;20420;-86
2022/04/21 10:58:37;;;;;;;7.53;4.65;;;;;;;16.78;36.48;101226.84;4986504;28;20096;-86
2022/04/21 11:01:15;;;;;;;12.50;5.30;;;;;;;16.79;36.35;101221.53;4989668;28;20040;-87
2022/04/21 11:03:42;;;;;;;16.50;5.30;;;;;;;16.75;36.46;101226.97;4991046;28;20015;-86
2022/04/21 11:06:12;;;;;;;10.52;5.15;;;;;;;16.79;36.37;101228.53;4990135;28;20463;-86
2022/04/21 11:08:37;;;;;;;10.30;5.20;;;;;;;16.83;34.42;101223.13;4989815;28;20076;-86
2022/04/21 11:11:04;;;;;;;9.48;5.35;;;;;;;16.78;36.29;101227.72;4989819;28;20034;-86
2022/04/21 11:13:48;;;;;;;7.80;4.43;;;;;;;16.89;34.92;101219.38;4988999;28;20078;-86
2022/04/21 11:16:42;;;;;;;12.00;4.43;;;;;;;16.92;35.56;101221.88;4988687;28;20026;-86
2022/04/21 11:19:29;;;;;;;7.22;4.30;;;;;;;16.99;35.01;101212.78;4989626;28;20030;-86
2022/04/21 11:22:00;;;;;;;12.57;5.22;;;;;;;17.09;35.62;101211.47;4989952;28;20026;-86
2022/04/21 11:24:26;;;;;;;9.80;4.20;;;;;;;17.07;33.07;101204.59;4990192;28;20054;-86
2022/04/21 11:27:00;;;;;;;8.90;4.40;;;;;;;17.06;34.53;101203.75;4990186;28;20053;-86
2022/04/21 11:29:26;;;;;;;8.27;4.80;;;;;;;17.08;33.84;101198.44;5010595;28;20026;-86
2022/04/21 11:31:55;;;;;;;11.68;4.78;;;;;;;17.06;34.21;101193.28;4989947;28;20037;-86
2022/04/21 11:34:25;;;;;;;8.38;4.82;;;;;;;17.04;35.27;101194.28;4989956;28;20502;-86
2022/04/21 11:36:56;;;;;;;10.05;5.10;;;;;;;17.01;34.49;101187.41;4989730;28;20369;-86
2022/04/21 11:39:21;;;;;;;7.85;5.18;;;;;;;16.98;35.12;101183.16;4989934;28;20544;-86
2022/04/21 11:41:48;;;;;;;7.95;4.55;;;;;;;17.08;35.29;101174.88;4990049;28;20101;-86
2022/04/21 11:44:23;;;;;;;6.35;4.10;;;;;;;17.10;33.30;101176.53;4995973;28;20049;-86
2022/04/21 11:46:49;;;;;;;9.38;4.20;;;;;;;17.21;32.54;101165.53;5002202;28;20026;-85
2022/04/21 11:49:14;;;;;;;10.65;4.50;;;;;;;17.35;32.11;101166.59;4998661;28;20030;-86
2022/04/21 11:51:40;;;;;;;11.00;4.03;;;;;;;17.50;32.33;101174.66;4993355;28;20058;-86
2022/04/21 11:54:11;;;;;;;11.20;4.15;;;;;;;17.52;31.18;101168.44;4993987;28;20038;-86
2022/04/21 11:56:38;;;;;;;14.05;4.38;;;;;;;17.51;32.84;101164.13;4993486;28;20030;-86
2022/04/21 11:59:07;;;;;;;13.07;5.45;;;;;;;17.60;33.93;101168.09;4993706;28;20022;-86
2022/04/21 12:07:05;;;;;;;9.82;5.43;;;;;;;18.00;33.62;101157.41;4993389;28;20041;-86
2022/04/21 12:09:35;;;;;;;12.55;5.45;;;;;;;18.11;33.55;101157.69;4992392;28;20026;-86
2022/04/21 12:12:03;;;;;;;12.43;5.05;;;;;;;18.20;33.34;101159.03;4994094;28;20105;-86
2022/04/21 12:14:29;;;;;;;9.95;4.70;;;;;;;18.31;34.83;101156.69;5006640;28;20026;-86
2022/04/21 12:16:55;;;;;;;7.50;4.05;;;;;;;18.42;32.20;101145.66;4993798;28;20455;-86
2022/04/21 12:19:39;;;;;;;8.85;3.85;;;;;;;18.32;30.41;101154.91;4992211;28;20532;-86